createdAt,value
2022-12-01T00:00:21.912Z,47.80
2022-12-01T00:03:14.439Z,46.80
2022-12-01T00:06:10.788Z,49.10
2022-12-01T00:09:20.800Z,49.40
2022-12-01T00:12:13.059Z,52.90
2022-12-01T00:15:07.649Z,52.00
2022-12-01T00:18:01.651Z,53.20
2022-12-01T00:20:56.248Z,55.20
2022-12-01T00:23:49.448Z,53.40
2022-12-01T00:26:42.040Z,54.90
2022-12-01T00:29:34.186Z,57.30
2022-12-01T00:32:26.481Z,56.30
2022-12-01T00:35:19.400Z,56.00
2022-12-01T00:38:11.536Z,52.90
2022-12-01T00:41:03.993Z,50.60
2022-12-01T00:43:56.250Z,48.90
2022-12-01T00:46:48.514Z,42.80
2022-12-01T00:50:24.150Z,41.60
2022-12-01T00:53:29.590Z,38.40
2022-12-01T00:56:25.594Z,46.90
2022-12-01T00:59:21.213Z,33.70
2022-12-01T01:02:27.759Z,35.80
2022-12-01T01:05:28.277Z,25.80
2022-12-01T01:08:23.610Z,9.90
2022-12-01T01:11:23.475Z,7.90
2022-12-01T01:14:19.101Z,3.20
2022-12-01T01:17:17.493Z,2.10
2022-12-01T01:20:13.856Z,1.60
2022-12-01T01:23:07.316Z,2.30
2022-12-01T01:26:11.144Z,2.00
2022-12-01T01:29:08.101Z,1.50
2022-12-01T01:32:07.579Z,1.80
2022-12-01T01:35:01.203Z,1.70
2022-12-01T01:38:04.139Z,1.40
2022-12-01T01:40:58.695Z,2.00
2022-12-01T01:44:04.512Z,1.70
2022-12-01T01:47:10.779Z,2.10
2022-12-01T01:50:27.319Z,2.60
2022-12-01T01:53:36.764Z,12.50
2022-12-01T01:56:41.221Z,23.90
2022-12-01T01:59:39.090Z,29.70
2022-12-01T02:02:40.801Z,30.10
2022-12-01T02:05:37.558Z,28.70
2022-12-01T02:08:30.268Z,30.00
2022-12-01T02:11:59.815Z,27.30
2022-12-01T02:15:14.713Z,26.00
2022-12-01T02:18:26.000Z,24.50
2022-12-01T02:21:35.953Z,24.00
2022-12-01T02:24:54.130Z,21.70
2022-12-01T02:28:17.382Z,20.60
2022-12-01T02:31:20.388Z,20.20
2022-12-01T02:34:20.679Z,18.60
2022-12-01T02:37:23.470Z,18.30
2022-12-01T02:40:25.353Z,17.20
2022-12-01T02:43:31.211Z,16.10
2022-12-01T02:46:35.522Z,15.60
2022-12-01T02:49:34.188Z,15.60
2022-12-01T02:52:28.207Z,15.00
2022-12-01T02:55:20.700Z,14.60
2022-12-01T02:58:17.909Z,14.30
2022-12-01T03:01:33.471Z,13.30
2022-12-01T03:04:48.033Z,13.80
2022-12-01T03:07:53.780Z,13.10
2022-12-01T03:10:52.779Z,13.30
2022-12-01T03:13:57.690Z,13.60
2022-12-01T03:17:01.928Z,12.10
2022-12-01T03:20:00.292Z,10.90
2022-12-01T03:22:57.743Z,11.30
2022-12-01T03:25:53.873Z,11.40
2022-12-01T03:28:55.199Z,10.80
2022-12-01T03:31:58.165Z,10.90
2022-12-01T03:34:59.674Z,10.60
2022-12-01T03:37:59.411Z,11.80
2022-12-01T03:40:56.643Z,11.30
2022-12-01T03:44:01.616Z,11.30
2022-12-01T03:47:05.793Z,10.50
2022-12-01T03:50:03.563Z,11.60
2022-12-01T03:53:07.255Z,11.50
2022-12-01T03:56:04.460Z,10.90
2022-12-01T03:59:03.002Z,10.70
2022-12-01T04:02:03.185Z,10.20
2022-12-01T04:05:02.309Z,11.10
2022-12-01T04:07:55.370Z,10.60
2022-12-01T04:10:50.291Z,10.90
2022-12-01T04:13:45.631Z,10.70
2022-12-01T04:16:42.579Z,9.90
2022-12-01T04:19:35.945Z,10.30
2022-12-01T04:22:32.678Z,9.80
2022-12-01T04:25:26.594Z,9.70
2022-12-01T04:28:19.137Z,9.50
2022-12-01T04:31:14.860Z,7.70
2022-12-01T04:34:10.829Z,5.80
2022-12-01T04:37:03.739Z,5.50
2022-12-01T04:39:59.267Z,4.00
2022-12-01T04:42:55.817Z,2.20
2022-12-01T04:45:49.179Z,1.70
2022-12-01T04:48:43.807Z,1.70
2022-12-01T04:51:42.462Z,1.60
2022-12-01T04:54:35.520Z,1.50
2022-12-01T04:57:30.532Z,1.30
2022-12-01T05:00:26.765Z,1.30
2022-12-01T05:03:23.620Z,1.10
2022-12-01T05:06:24.157Z,1.40
2022-12-01T05:09:21.264Z,1.30
2022-12-01T05:12:15.245Z,1.40
2022-12-01T05:15:11.923Z,1.40
2022-12-01T05:18:06.279Z,1.20
2022-12-01T05:21:04.556Z,1.20
2022-12-01T05:23:57.464Z,1.40
2022-12-01T05:26:53.137Z,1.30
2022-12-01T05:29:46.019Z,1.70
2022-12-01T05:32:41.068Z,1.40
2022-12-01T05:35:34.140Z,1.40
2022-12-01T05:38:29.262Z,1.40
2022-12-01T05:41:26.749Z,1.40
2022-12-01T05:44:19.450Z,1.30
2022-12-01T05:47:14.878Z,1.40
2022-12-01T05:50:14.406Z,1.60
2022-12-01T05:53:10.733Z,1.60
2022-12-01T05:56:06.766Z,1.60
2022-12-01T05:59:00.962Z,1.60
2022-12-01T06:01:57.592Z,1.60
2022-12-01T06:04:53.870Z,1.50
2022-12-01T06:07:49.956Z,1.70
2022-12-01T06:10:47.934Z,1.70
2022-12-01T06:13:48.227Z,1.70
2022-12-01T06:16:43.737Z,1.30
2022-12-01T06:19:38.952Z,2.00
2022-12-01T06:22:35.527Z,2.10
2022-12-01T06:25:33.089Z,2.40
2022-12-01T06:28:27.731Z,2.40
2022-12-01T06:31:22.521Z,2.60
2022-12-01T06:34:34.588Z,3.00
2022-12-01T06:37:34.331Z,3.90
2022-12-01T06:40:33.755Z,3.90
2022-12-01T06:43:27.014Z,5.10
2022-12-01T06:46:21.035Z,4.70
2022-12-01T06:49:28.383Z,5.50
2022-12-01T06:52:26.472Z,5.80
2022-12-01T06:55:20.718Z,5.40
2022-12-01T06:58:19.602Z,5.50
2022-12-01T07:01:14.585Z,5.40
2022-12-01T07:04:19.124Z,5.20
2022-12-01T07:07:17.002Z,6.40
2022-12-01T07:10:19.904Z,6.50
2022-12-01T07:13:12.722Z,5.00
2022-12-01T07:16:12.541Z,5.90
2022-12-01T07:19:07.535Z,5.70
2022-12-01T07:22:35.019Z,5.30
2022-12-01T07:25:42.311Z,5.90
2022-12-01T07:29:06.240Z,5.90
2022-12-01T07:31:56.076Z,5.90
2022-12-01T07:34:54.192Z,6.60
2022-12-01T07:38:22.351Z,6.20
2022-12-01T07:45:30.230Z,5.90
2022-12-01T07:48:49.071Z,6.20
2022-12-01T07:51:42.694Z,6.00
2022-12-01T07:59:18.563Z,6.00
2022-12-01T09:22:39.432Z,8.80
2022-12-01T09:25:36.180Z,8.40
2022-12-01T09:42:47.974Z,4.90
2022-12-01T09:54:33.893Z,5.40
2022-12-01T09:57:52.641Z,4.70
2022-12-01T10:05:05.811Z,5.70
2022-12-01T10:08:15.675Z,6.30
2022-12-01T10:15:39.629Z,5.50
2022-12-01T10:23:26.513Z,6.20
2022-12-01T10:26:39.778Z,6.00
2022-12-01T10:30:12.361Z,5.30
2022-12-01T10:33:23.059Z,6.10
2022-12-01T12:00:32.725Z,3.20
2022-12-01T12:12:11.167Z,3.00
2022-12-01T12:33:23.940Z,2.60
2022-12-01T12:37:53.924Z,2.30
2022-12-01T12:42:20.177Z,2.10
2022-12-01T12:45:51.493Z,2.40
2022-12-01T13:19:14.242Z,2.40
2022-12-01T17:04:25.388Z,6.70
2022-12-01T17:07:37.757Z,8.80
2022-12-01T17:10:31.358Z,12.80
2022-12-01T17:14:19.508Z,11.50
2022-12-01T17:17:12.195Z,15.40
2022-12-01T17:20:05.818Z,16.00
2022-12-01T17:23:16.382Z,16.90
2022-12-01T17:26:13.459Z,25.30
2022-12-01T17:29:08.245Z,29.00
2022-12-01T17:32:02.126Z,34.70
2022-12-01T17:34:56.770Z,25.00
2022-12-01T17:37:52.137Z,18.50
2022-12-01T17:41:03.177Z,21.80
2022-12-01T17:43:55.446Z,16.60
2022-12-01T17:46:47.806Z,16.80
2022-12-01T17:49:40.722Z,17.30
2022-12-01T17:52:35.053Z,16.50
2022-12-01T17:55:30.565Z,15.60
2022-12-01T17:58:26.395Z,15.20
2022-12-01T18:01:29.949Z,14.90
2022-12-01T18:04:25.943Z,14.60
2022-12-01T18:07:23.274Z,14.50
2022-12-01T18:10:43.324Z,14.00
2022-12-01T18:13:48.706Z,15.80
2022-12-01T18:16:54.599Z,15.00
2022-12-01T18:19:50.809Z,14.60
2022-12-01T18:23:05.609Z,13.20
2022-12-01T18:26:25.087Z,14.50
2022-12-01T18:32:17.217Z,22.50
2022-12-01T18:35:17.572Z,23.00
2022-12-01T18:38:12.790Z,16.90
2022-12-01T18:41:46.912Z,14.30
2022-12-01T18:45:19.408Z,15.30
2022-12-01T18:48:30.107Z,14.90
2022-12-01T18:51:23.763Z,16.50
2022-12-01T18:54:38.264Z,15.80
2022-12-01T18:57:55.834Z,16.00
2022-12-01T19:04:50.536Z,17.00
2022-12-01T19:07:45.171Z,22.50
2022-12-01T19:10:40.413Z,26.30
2022-12-01T19:13:38.285Z,28.20
2022-12-01T19:16:33.266Z,30.00
2022-12-01T19:19:37.777Z,25.60
2022-12-01T19:22:49.824Z,27.40
2022-12-01T19:28:31.668Z,25.60
2022-12-01T19:30:34.924Z,23.30
2022-12-01T19:33:54.638Z,17.00
2022-12-01T19:40:33.388Z,22.00
2022-12-01T19:43:26.023Z,18.80
2022-12-01T19:46:30.654Z,15.60
2022-12-01T19:49:24.436Z,14.30
2022-12-01T19:52:29.640Z,11.70
2022-12-01T19:55:24.842Z,10.40
2022-12-01T19:58:19.609Z,12.20
2022-12-01T20:01:18.423Z,13.40
2022-12-01T20:04:11.031Z,15.30
2022-12-01T20:07:06.566Z,14.10
2022-12-01T20:09:59.167Z,15.40
2022-12-01T20:13:04.440Z,15.60
2022-12-01T20:16:04.802Z,16.40
2022-12-01T20:19:01.241Z,15.20
2022-12-01T20:21:55.030Z,15.50
2022-12-01T20:24:52.440Z,13.90
2022-12-01T20:27:45.683Z,13.70
2022-12-01T20:30:43.274Z,12.70
2022-12-01T20:33:40.792Z,14.00
2022-12-01T20:36:37.848Z,13.40
2022-12-01T20:39:34.807Z,14.30
2022-12-01T20:42:31.016Z,16.80
2022-12-01T20:45:25.839Z,17.90
2022-12-01T20:48:21.978Z,19.10
2022-12-01T20:51:17.335Z,19.40
2022-12-01T20:54:30.813Z,19.40
2022-12-01T20:57:23.385Z,18.00
2022-12-01T21:00:19.972Z,17.40
2022-12-01T21:03:12.976Z,16.20
2022-12-01T21:06:06.451Z,16.30
2022-12-01T21:27:57.830Z,13.30
2022-12-01T21:30:52.247Z,13.10
2022-12-01T21:33:47.814Z,13.60
2022-12-01T21:36:43.110Z,12.70
2022-12-01T21:39:58.818Z,10.40
2022-12-01T21:43:23.478Z,9.90
2022-12-01T21:46:21.121Z,8.40
2022-12-01T21:49:33.355Z,7.00
2022-12-01T21:52:36.158Z,7.80
2022-12-01T21:55:49.624Z,8.10
2022-12-01T21:58:53.119Z,7.50
2022-12-01T22:01:50.825Z,8.10
2022-12-01T22:04:50.716Z,7.70
2022-12-01T22:07:45.938Z,7.90
2022-12-01T22:10:55.567Z,7.50
2022-12-01T22:13:52.638Z,7.20
2022-12-01T22:16:46.904Z,7.10
2022-12-01T22:19:47.874Z,6.80
2022-12-01T22:22:42.501Z,6.30
2022-12-01T22:25:35.360Z,6.00
2022-12-01T22:28:27.788Z,5.70
2022-12-01T22:31:25.711Z,6.60
2022-12-01T22:34:23.696Z,6.90
2022-12-01T22:40:37.123Z,7.10
2022-12-01T22:43:48.549Z,7.60
2022-12-01T22:46:43.291Z,8.10
2022-12-01T22:49:45.823Z,7.70
2022-12-01T22:52:39.696Z,8.20
2022-12-01T22:55:32.117Z,8.30
2022-12-01T22:58:34.307Z,8.30
2022-12-01T23:01:35.746Z,8.20
2022-12-01T23:04:31.542Z,8.80
2022-12-01T23:07:42.042Z,9.20
2022-12-01T23:10:41.533Z,9.50
2022-12-01T23:17:14.857Z,10.10
2022-12-01T23:24:44.902Z,8.70
2022-12-01T23:31:35.156Z,8.20
2022-12-01T23:35:09.976Z,9.20
2022-12-01T23:38:05.047Z,8.50
2022-12-01T23:41:01.631Z,8.30
2022-12-01T23:43:57.569Z,8.10
2022-12-01T23:46:54.421Z,7.60
2022-12-01T23:49:47.333Z,7.10
2022-12-01T23:52:54.164Z,7.60
2022-12-01T23:56:04.377Z,7.70
2022-12-01T23:59:37.329Z,7.70
